<?xml version="1.0" encoding="UTF-8" standalone="no" ?>
<gpx xmlns="http://www.topografix.com/GPX/1/1" xmlns:xsi="http://www.w3.org/2001/XMLSchema-instance" xsi:schemaLocation="http://www.topografix.com/GPX/1/1 http://www.topografix.com/GPX/1/1/gpx.xsd" version="1.1" creator="VisuGPX - https://www.visugpx.com">
  <metadata>
    <name>skirando tete croues</name>
    <desc><![CDATA[pour éviter le problème de la veille, on choisit un départ plus loin de la frontière et de la nebbia italienne et on part plus tôt. bon regel au départ, le soleil apparait et éclaire un vallon magique. montée finale en crampons. superbe panorama, on profite une petite heure. descente un peu avant 9h30, la plus rapide de la semaine ! avec les amis.]]></desc>
  </metadata>
  <wpt lat="44.46677" lon="6.72131">
    <ele>1833.97</ele>
    <name><![CDATA[0000232]]></name>
    <type><![CDATA[Point de départ]]></type>
  </wpt>
  <wpt lat="44.46687" lon="6.72135">
    <ele>1838.01</ele>
    <name><![CDATA[0000233]]></name>
    <desc><![CDATA[<p><br /><h3>Nom: Segment: 1</h3><br />Heure de départ: 04/19/2018 05:18<br/>Heure d'arrivée: 04/19/2018 09:48<br/>Distance: 9,5km (04:30)<br/>Temps déplacement: 01:59<br/>Vitesse moyenne: 2,11 km/h<br/>Vitesse moyenne mouv.: 4,7 km/h<br/>Vitesse Max.: 48,08 km/h<br/>Altitude minimale: 1828 m<br/>Altitude maximale: 2925 m<br/>Vitesse de montée: 280,8 m/h<br/>Vitesse de descente: -1906,7 m/h<br/>Gain d'altitude: 1097 m<br/>Perte d'altitude: -1088 m<br/>Temps de montée: 03:54<br/>Temps de descente: 00:34<br/></p>]]></desc>
    <type><![CDATA[Point d'arrivée]]></type>
  </wpt>
  <trk>
    <name><![CDATA[2018-04-19 05:18 tete de crouès]]></name>
    <trkseg>
      <trkpt lat="44.46677" lon="6.72131">
        <ele>1833.97</ele>
        <time>2018-04-19T03:18:12.000Z</time>
      </trkpt>
      <trkpt lat="44.46695" lon="6.72129">
        <ele>1832.46</ele>
        <time>2018-04-19T03:19:11.000Z</time>
      </trkpt>
      <trkpt lat="44.46693" lon="6.72102">
        <ele>1831.54</ele>
        <time>2018-04-19T03:22:00.000Z</time>
      </trkpt>
      <trkpt lat="44.46678" lon="6.72083">
        <ele>1828.04</ele>
        <time>2018-04-19T03:23:52.000Z</time>
      </trkpt>
      <trkpt lat="44.46662" lon="6.72067">
        <ele>1828.48</ele>
        <time>2018-04-19T03:24:20.000Z</time>
      </trkpt>
      <trkpt lat="44.46646" lon="6.72054">
        <ele>1831.05</ele>
        <time>2018-04-19T03:24:44.000Z</time>
      </trkpt>
      <trkpt lat="44.46629" lon="6.72043">
        <ele>1835.51</ele>
        <time>2018-04-19T03:25:12.000Z</time>
      </trkpt>
      <trkpt lat="44.4661" lon="6.7204">
        <ele>1839.32</ele>
        <time>2018-04-19T03:25:36.000Z</time>
      </trkpt>
      <trkpt lat="44.46592" lon="6.72037">
        <ele>1843.17</ele>
        <time>2018-04-19T03:26:00.000Z</time>
      </trkpt>
      <trkpt lat="44.46574" lon="6.72038">
        <ele>1846.51</ele>
        <time>2018-04-19T03:26:20.000Z</time>
      </trkpt>
      <trkpt lat="44.46555" lon="6.72029">
        <ele>1851.01</ele>
        <time>2018-04-19T03:26:44.000Z</time>
      </trkpt>
      <trkpt lat="44.46544" lon="6.72007">
        <ele>1853.48</ele>
        <time>2018-04-19T03:27:04.000Z</time>
      </trkpt>
      <trkpt lat="44.46537" lon="6.7198">
        <ele>1854.49</ele>
        <time>2018-04-19T03:27:24.000Z</time>
      </trkpt>
      <trkpt lat="44.4653" lon="6.71954">
        <ele>1854.8</ele>
        <time>2018-04-19T03:27:44.000Z</time>
      </trkpt>
      <trkpt lat="44.46526" lon="6.71929">
        <ele>1855.39</ele>
        <time>2018-04-19T03:28:08.000Z</time>
      </trkpt>
      <trkpt lat="44.46523" lon="6.71902">
        <ele>1858.01</ele>
        <time>2018-04-19T03:28:32.000Z</time>
      </trkpt>
      <trkpt lat="44.4653" lon="6.71878">
        <ele>1862.25</ele>
        <time>2018-04-19T03:29:08.000Z</time>
      </trkpt>
      <trkpt lat="44.46531" lon="6.71851">
        <ele>1865.56</ele>
        <time>2018-04-19T03:29:32.000Z</time>
      </trkpt>
      <trkpt lat="44.46534" lon="6.71825">
        <ele>1869.28</ele>
        <time>2018-04-19T03:29:52.000Z</time>
      </trkpt>
      <trkpt lat="44.46544" lon="6.71801">
        <ele>1875.11</ele>
        <time>2018-04-19T03:30:20.000Z</time>
      </trkpt>
      <trkpt lat="44.46548" lon="6.71776">
        <ele>1880.05</ele>
        <time>2018-04-19T03:30:48.000Z</time>
      </trkpt>
      <trkpt lat="44.46556" lon="6.7175">
        <ele>1886.53</ele>
        <time>2018-04-19T03:31:24.000Z</time>
      </trkpt>
      <trkpt lat="44.46561" lon="6.71725">
        <ele>1891.65</ele>
        <time>2018-04-19T03:31:52.000Z</time>
      </trkpt>
      <trkpt lat="44.46564" lon="6.71699">
        <ele>1896.62</ele>
        <time>2018-04-19T03:32:16.000Z</time>
      </trkpt>
      <trkpt lat="44.46561" lon="6.71672">
        <ele>1900.87</ele>
        <time>2018-04-19T03:32:36.000Z</time>
      </trkpt>
      <trkpt lat="44.46544" lon="6.71657">
        <ele>1908.48</ele>
        <time>2018-04-19T03:33:20.000Z</time>
      </trkpt>
      <trkpt lat="44.46526" lon="6.71647">
        <ele>1912.02</ele>
        <time>2018-04-19T03:33:36.000Z</time>
      </trkpt>
      <trkpt lat="44.4651" lon="6.71659">
        <ele>1915.56</ele>
        <time>2018-04-19T03:34:20.000Z</time>
      </trkpt>
      <trkpt lat="44.4649" lon="6.71664">
        <ele>1917.32</ele>
        <time>2018-04-19T03:34:36.000Z</time>
      </trkpt>
      <trkpt lat="44.46469" lon="6.71657">
        <ele>1923.01</ele>
        <time>2018-04-19T03:35:00.000Z</time>
      </trkpt>
      <trkpt lat="44.4645" lon="6.71651">
        <ele>1927.72</ele>
        <time>2018-04-19T03:35:20.000Z</time>
      </trkpt>
      <trkpt lat="44.46431" lon="6.71654">
        <ele>1933.23</ele>
        <time>2018-04-19T03:35:48.000Z</time>
      </trkpt>
      <trkpt lat="44.46413" lon="6.7166">
        <ele>1936.29</ele>
        <time>2018-04-19T03:36:08.000Z</time>
      </trkpt>
      <trkpt lat="44.46394" lon="6.71663">
        <ele>1941.77</ele>
        <time>2018-04-19T03:36:36.000Z</time>
      </trkpt>
      <trkpt lat="44.46378" lon="6.71681">
        <ele>1945.05</ele>
        <time>2018-04-19T03:37:04.000Z</time>
      </trkpt>
      <trkpt lat="44.46364" lon="6.71698">
        <ele>1946.17</ele>
        <time>2018-04-19T03:38:24.000Z</time>
      </trkpt>
      <trkpt lat="44.46357" lon="6.71675">
        <ele>1950.32</ele>
        <time>2018-04-19T03:40:28.000Z</time>
      </trkpt>
      <trkpt lat="44.46339" lon="6.71666">
        <ele>1950.27</ele>
        <time>2018-04-19T03:40:40.000Z</time>
      </trkpt>
      <trkpt lat="44.46318" lon="6.71663">
        <ele>1949.28</ele>
        <time>2018-04-19T03:40:56.000Z</time>
      </trkpt>
      <trkpt lat="44.46297" lon="6.71661">
        <ele>1948.61</ele>
        <time>2018-04-19T03:41:16.000Z</time>
      </trkpt>
      <trkpt lat="44.46277" lon="6.71658">
        <ele>1949</ele>
        <time>2018-04-19T03:41:36.000Z</time>
      </trkpt>
      <trkpt lat="44.46259" lon="6.7166">
        <ele>1949</ele>
        <time>2018-04-19T03:41:56.000Z</time>
      </trkpt>
      <trkpt lat="44.46241" lon="6.71675">
        <ele>1950.6</ele>
        <time>2018-04-19T03:42:24.000Z</time>
      </trkpt>
      <trkpt lat="44.46223" lon="6.71686">
        <ele>1952.66</ele>
        <time>2018-04-19T03:42:52.000Z</time>
      </trkpt>
      <trkpt lat="44.46204" lon="6.71692">
        <ele>1955.68</ele>
        <time>2018-04-19T03:43:24.000Z</time>
      </trkpt>
      <trkpt lat="44.46193" lon="6.7167">
        <ele>1961.6</ele>
        <time>2018-04-19T03:43:52.000Z</time>
      </trkpt>
      <trkpt lat="44.46191" lon="6.71641">
        <ele>1966.92</ele>
        <time>2018-04-19T03:44:12.000Z</time>
      </trkpt>
      <trkpt lat="44.46186" lon="6.71614">
        <ele>1975.86</ele>
        <time>2018-04-19T03:44:48.000Z</time>
      </trkpt>
      <trkpt lat="44.46184" lon="6.71588">
        <ele>1980.54</ele>
        <time>2018-04-19T03:45:12.000Z</time>
      </trkpt>
      <trkpt lat="44.46165" lon="6.71595">
        <ele>1985.63</ele>
        <time>2018-04-19T03:46:00.000Z</time>
      </trkpt>
      <trkpt lat="44.46149" lon="6.71613">
        <ele>1987.29</ele>
        <time>2018-04-19T03:46:28.000Z</time>
      </trkpt>
      <trkpt lat="44.46133" lon="6.71623">
        <ele>1990.79</ele>
        <time>2018-04-19T03:46:56.000Z</time>
      </trkpt>
      <trkpt lat="44.46123" lon="6.716">
        <ele>1996.32</ele>
        <time>2018-04-19T03:47:32.000Z</time>
      </trkpt>
      <trkpt lat="44.46114" lon="6.71578">
        <ele>2003.12</ele>
        <time>2018-04-19T03:48:04.000Z</time>
      </trkpt>
      <trkpt lat="44.46094" lon="6.71579">
        <ele>2008.41</ele>
        <time>2018-04-19T03:48:36.000Z</time>
      </trkpt>
      <trkpt lat="44.46077" lon="6.71569">
        <ele>2018.24</ele>
        <time>2018-04-19T03:51:37.000Z</time>
      </trkpt>
      <trkpt lat="44.46062" lon="6.71553">
        <ele>2022.42</ele>
        <time>2018-04-19T03:52:01.000Z</time>
      </trkpt>
      <trkpt lat="44.46047" lon="6.71531">
        <ele>2024.96</ele>
        <time>2018-04-19T03:52:29.000Z</time>
      </trkpt>
      <trkpt lat="44.46032" lon="6.71512">
        <ele>2026.89</ele>
        <time>2018-04-19T03:52:53.000Z</time>
      </trkpt>
      <trkpt lat="44.46018" lon="6.71494">
        <ele>2028.76</ele>
        <time>2018-04-19T03:53:21.000Z</time>
      </trkpt>
      <trkpt lat="44.46003" lon="6.71475">
        <ele>2030.42</ele>
        <time>2018-04-19T03:53:45.000Z</time>
      </trkpt>
      <trkpt lat="44.45987" lon="6.71462">
        <ele>2035.38</ele>
        <time>2018-04-19T03:54:17.000Z</time>
      </trkpt>
      <trkpt lat="44.4597" lon="6.71451">
        <ele>2038.09</ele>
        <time>2018-04-19T03:54:37.000Z</time>
      </trkpt>
      <trkpt lat="44.45953" lon="6.71443">
        <ele>2042.67</ele>
        <time>2018-04-19T03:55:01.000Z</time>
      </trkpt>
      <trkpt lat="44.45936" lon="6.71429">
        <ele>2046.93</ele>
        <time>2018-04-19T03:55:25.000Z</time>
      </trkpt>
      <trkpt lat="44.45919" lon="6.71417">
        <ele>2050.68</ele>
        <time>2018-04-19T03:55:57.000Z</time>
      </trkpt>
      <trkpt lat="44.45899" lon="6.7141">
        <ele>2053.89</ele>
        <time>2018-04-19T03:56:30.000Z</time>
      </trkpt>
      <trkpt lat="44.4589" lon="6.71387">
        <ele>2057.25</ele>
        <time>2018-04-19T03:56:58.000Z</time>
      </trkpt>
      <trkpt lat="44.45885" lon="6.71358">
        <ele>2060.74</ele>
        <time>2018-04-19T03:57:22.000Z</time>
      </trkpt>
      <trkpt lat="44.4588" lon="6.71332">
        <ele>2064.04</ele>
        <time>2018-04-19T03:57:50.000Z</time>
      </trkpt>
      <trkpt lat="44.45877" lon="6.71305">
        <ele>2066.26</ele>
        <time>2018-04-19T03:58:18.000Z</time>
      </trkpt>
      <trkpt lat="44.45874" lon="6.71278">
        <ele>2068.65</ele>
        <time>2018-04-19T03:58:42.000Z</time>
      </trkpt>
      <trkpt lat="44.45868" lon="6.71254">
        <ele>2071.73</ele>
        <time>2018-04-19T03:59:14.000Z</time>
      </trkpt>
      <trkpt lat="44.45858" lon="6.7123">
        <ele>2073.01</ele>
        <time>2018-04-19T03:59:42.000Z</time>
      </trkpt>
      <trkpt lat="44.45853" lon="6.71205">
        <ele>2075.59</ele>
        <time>2018-04-19T04:00:10.000Z</time>
      </trkpt>
      <trkpt lat="44.45842" lon="6.71181">
        <ele>2078.64</ele>
        <time>2018-04-19T04:00:34.000Z</time>
      </trkpt>
      <trkpt lat="44.45833" lon="6.71159">
        <ele>2082.85</ele>
        <time>2018-04-19T04:01:02.000Z</time>
      </trkpt>
      <trkpt lat="44.45818" lon="6.71141">
        <ele>2086.95</ele>
        <time>2018-04-19T04:01:30.000Z</time>
      </trkpt>
      <trkpt lat="44.45821" lon="6.71115">
        <ele>2092.85</ele>
        <time>2018-04-19T04:02:06.000Z</time>
      </trkpt>
      <trkpt lat="44.45838" lon="6.71099">
        <ele>2098.35</ele>
        <time>2018-04-19T04:02:34.000Z</time>
      </trkpt>
      <trkpt lat="44.45827" lon="6.71077">
        <ele>2105.29</ele>
        <time>2018-04-19T04:03:10.000Z</time>
      </trkpt>
      <trkpt lat="44.4581" lon="6.71058">
        <ele>2109.77</ele>
        <time>2018-04-19T04:03:34.000Z</time>
      </trkpt>
      <trkpt lat="44.45791" lon="6.71059">
        <ele>2116.74</ele>
        <time>2018-04-19T04:04:02.000Z</time>
      </trkpt>
      <trkpt lat="44.45773" lon="6.7106">
        <ele>2124.05</ele>
        <time>2018-04-19T04:04:38.000Z</time>
      </trkpt>
      <trkpt lat="44.45757" lon="6.71041">
        <ele>2131.7</ele>
        <time>2018-04-19T04:05:10.000Z</time>
      </trkpt>
      <trkpt lat="44.45737" lon="6.71033">
        <ele>2139.02</ele>
        <time>2018-04-19T04:05:38.000Z</time>
      </trkpt>
      <trkpt lat="44.45717" lon="6.71027">
        <ele>2143.35</ele>
        <time>2018-04-19T04:06:10.000Z</time>
      </trkpt>
      <trkpt lat="44.45698" lon="6.71017">
        <ele>2146.6</ele>
        <time>2018-04-19T04:06:38.000Z</time>
      </trkpt>
      <trkpt lat="44.45681" lon="6.70997">
        <ele>2152.24</ele>
        <time>2018-04-19T04:07:10.000Z</time>
      </trkpt>
      <trkpt lat="44.45662" lon="6.70979">
        <ele>2152.37</ele>
        <time>2018-04-19T04:07:46.000Z</time>
      </trkpt>
      <trkpt lat="44.45647" lon="6.70958">
        <ele>2158.11</ele>
        <time>2018-04-19T04:08:14.000Z</time>
      </trkpt>
      <trkpt lat="44.45629" lon="6.70944">
        <ele>2165.1</ele>
        <time>2018-04-19T04:09:38.000Z</time>
      </trkpt>
      <trkpt lat="44.45611" lon="6.70934">
        <ele>2168.43</ele>
        <time>2018-04-19T04:10:10.000Z</time>
      </trkpt>
      <trkpt lat="44.45598" lon="6.70913">
        <ele>2177.56</ele>
        <time>2018-04-19T04:12:50.000Z</time>
      </trkpt>
      <trkpt lat="44.45586" lon="6.7089">
        <ele>2181.83</ele>
        <time>2018-04-19T04:13:18.000Z</time>
      </trkpt>
      <trkpt lat="44.45575" lon="6.70869">
        <ele>2184.57</ele>
        <time>2018-04-19T04:13:42.000Z</time>
      </trkpt>
      <trkpt lat="44.45564" lon="6.70848">
        <ele>2184.98</ele>
        <time>2018-04-19T04:14:02.000Z</time>
      </trkpt>
      <trkpt lat="44.45551" lon="6.70823">
        <ele>2185.94</ele>
        <time>2018-04-19T04:14:33.000Z</time>
      </trkpt>
      <trkpt lat="44.45535" lon="6.70803">
        <ele>2187.91</ele>
        <time>2018-04-19T04:15:01.000Z</time>
      </trkpt>
      <trkpt lat="44.4552" lon="6.70785">
        <ele>2190.67</ele>
        <time>2018-04-19T04:15:21.000Z</time>
      </trkpt>
      <trkpt lat="44.45506" lon="6.70767">
        <ele>2189.09</ele>
        <time>2018-04-19T04:15:53.000Z</time>
      </trkpt>
      <trkpt lat="44.45491" lon="6.7075">
        <ele>2189.94</ele>
        <time>2018-04-19T04:16:17.000Z</time>
      </trkpt>
      <trkpt lat="44.45472" lon="6.70738">
        <ele>2191.81</ele>
        <time>2018-04-19T04:16:41.000Z</time>
      </trkpt>
      <trkpt lat="44.4546" lon="6.70715">
        <ele>2190.6</ele>
        <time>2018-04-19T04:17:05.000Z</time>
      </trkpt>
      <trkpt lat="44.45447" lon="6.70692">
        <ele>2195.65</ele>
        <time>2018-04-19T04:17:29.000Z</time>
      </trkpt>
      <trkpt lat="44.45433" lon="6.70672">
        <ele>2202.35</ele>
        <time>2018-04-19T04:17:57.000Z</time>
      </trkpt>
      <trkpt lat="44.45422" lon="6.70646">
        <ele>2202.76</ele>
        <time>2018-04-19T04:18:13.000Z</time>
      </trkpt>
      <trkpt lat="44.45418" lon="6.70621">
        <ele>2203.96</ele>
        <time>2018-04-19T04:18:41.000Z</time>
      </trkpt>
      <trkpt lat="44.45417" lon="6.70595">
        <ele>2206.56</ele>
        <time>2018-04-19T04:19:05.000Z</time>
      </trkpt>
      <trkpt lat="44.45419" lon="6.7057">
        <ele>2208.47</ele>
        <time>2018-04-19T04:19:33.000Z</time>
      </trkpt>
      <trkpt lat="44.45414" lon="6.70545">
        <ele>2210.93</ele>
        <time>2018-04-19T04:19:49.000Z</time>
      </trkpt>
      <trkpt lat="44.45412" lon="6.70518">
        <ele>2215.82</ele>
        <time>2018-04-19T04:20:13.000Z</time>
      </trkpt>
      <trkpt lat="44.454" lon="6.70497">
        <ele>2221.19</ele>
        <time>2018-04-19T04:20:45.000Z</time>
      </trkpt>
      <trkpt lat="44.45397" lon="6.70468">
        <ele>2211.06</ele>
        <time>2018-04-19T04:21:29.000Z</time>
      </trkpt>
      <trkpt lat="44.45393" lon="6.70442">
        <ele>2211.91</ele>
        <time>2018-04-19T04:21:45.000Z</time>
      </trkpt>
      <trkpt lat="44.45383" lon="6.70416">
        <ele>2215.78</ele>
        <time>2018-04-19T04:22:09.000Z</time>
      </trkpt>
      <trkpt lat="44.45383" lon="6.70389">
        <ele>2220.67</ele>
        <time>2018-04-19T04:22:33.000Z</time>
      </trkpt>
      <trkpt lat="44.45381" lon="6.7036">
        <ele>2225.84</ele>
        <time>2018-04-19T04:23:01.000Z</time>
      </trkpt>
      <trkpt lat="44.45371" lon="6.70337">
        <ele>2231.9</ele>
        <time>2018-04-19T04:23:29.000Z</time>
      </trkpt>
      <trkpt lat="44.4536" lon="6.70315">
        <ele>2239.97</ele>
        <time>2018-04-19T04:23:57.000Z</time>
      </trkpt>
      <trkpt lat="44.45349" lon="6.70293">
        <ele>2245.57</ele>
        <time>2018-04-19T04:24:21.000Z</time>
      </trkpt>
      <trkpt lat="44.45337" lon="6.70273">
        <ele>2250.54</ele>
        <time>2018-04-19T04:24:41.000Z</time>
      </trkpt>
      <trkpt lat="44.45323" lon="6.70252">
        <ele>2257.75</ele>
        <time>2018-04-19T04:25:09.000Z</time>
      </trkpt>
      <trkpt lat="44.45306" lon="6.70235">
        <ele>2261.69</ele>
        <time>2018-04-19T04:25:33.000Z</time>
      </trkpt>
      <trkpt lat="44.4529" lon="6.7022">
        <ele>2265.82</ele>
        <time>2018-04-19T04:26:01.000Z</time>
      </trkpt>
      <trkpt lat="44.45275" lon="6.70201">
        <ele>2269.26</ele>
        <time>2018-04-19T04:26:29.000Z</time>
      </trkpt>
      <trkpt lat="44.4526" lon="6.70186">
        <ele>2273.12</ele>
        <time>2018-04-19T04:26:53.000Z</time>
      </trkpt>
      <trkpt lat="44.45247" lon="6.70165">
        <ele>2276.7</ele>
        <time>2018-04-19T04:27:21.000Z</time>
      </trkpt>
      <trkpt lat="44.45241" lon="6.7014">
        <ele>2278.9</ele>
        <time>2018-04-19T04:27:49.000Z</time>
      </trkpt>
      <trkpt lat="44.45232" lon="6.70117">
        <ele>2279.77</ele>
        <time>2018-04-19T04:28:09.000Z</time>
      </trkpt>
      <trkpt lat="44.4522" lon="6.70094">
        <ele>2280.77</ele>
        <time>2018-04-19T04:28:37.000Z</time>
      </trkpt>
      <trkpt lat="44.45209" lon="6.7007">
        <ele>2280.84</ele>
        <time>2018-04-19T04:29:05.000Z</time>
      </trkpt>
      <trkpt lat="44.45195" lon="6.70054">
        <ele>2281.42</ele>
        <time>2018-04-19T04:29:25.000Z</time>
      </trkpt>
      <trkpt lat="44.45179" lon="6.70033">
        <ele>2283.9</ele>
        <time>2018-04-19T04:29:49.000Z</time>
      </trkpt>
      <trkpt lat="44.45165" lon="6.70013">
        <ele>2286.23</ele>
        <time>2018-04-19T04:30:13.000Z</time>
      </trkpt>
      <trkpt lat="44.45143" lon="6.70008">
        <ele>2287.34</ele>
        <time>2018-04-19T04:30:29.000Z</time>
      </trkpt>
      <trkpt lat="44.45124" lon="6.70008">
        <ele>2289.86</ele>
        <time>2018-04-19T04:30:49.000Z</time>
      </trkpt>
      <trkpt lat="44.45106" lon="6.69996">
        <ele>2290.91</ele>
        <time>2018-04-19T04:31:17.000Z</time>
      </trkpt>
      <trkpt lat="44.45093" lon="6.69978">
        <ele>2289.96</ele>
        <time>2018-04-19T04:31:37.000Z</time>
      </trkpt>
      <trkpt lat="44.45079" lon="6.69961">
        <ele>2289.78</ele>
        <time>2018-04-19T04:32:02.000Z</time>
      </trkpt>
      <trkpt lat="44.45063" lon="6.69947">
        <ele>2291.79</ele>
        <time>2018-04-19T04:32:30.000Z</time>
      </trkpt>
      <trkpt lat="44.45046" lon="6.69927">
        <ele>2294.89</ele>
        <time>2018-04-19T04:32:58.000Z</time>
      </trkpt>
      <trkpt lat="44.45032" lon="6.6991">
        <ele>2313.93</ele>
        <time>2018-04-19T04:36:10.000Z</time>
      </trkpt>
      <trkpt lat="44.45018" lon="6.69894">
        <ele>2318.73</ele>
        <time>2018-04-19T04:36:34.000Z</time>
      </trkpt>
      <trkpt lat="44.45005" lon="6.69876">
        <ele>2323.03</ele>
        <time>2018-04-19T04:37:02.000Z</time>
      </trkpt>
      <trkpt lat="44.44997" lon="6.69853">
        <ele>2326.22</ele>
        <time>2018-04-19T04:37:30.000Z</time>
      </trkpt>
      <trkpt lat="44.44984" lon="6.69834">
        <ele>2329.09</ele>
        <time>2018-04-19T04:37:58.000Z</time>
      </trkpt>
      <trkpt lat="44.44972" lon="6.69814">
        <ele>2330.97</ele>
        <time>2018-04-19T04:38:26.000Z</time>
      </trkpt>
      <trkpt lat="44.44967" lon="6.69788">
        <ele>2332.38</ele>
        <time>2018-04-19T04:38:58.000Z</time>
      </trkpt>
      <trkpt lat="44.44957" lon="6.69766">
        <ele>2335.92</ele>
        <time>2018-04-19T04:39:30.000Z</time>
      </trkpt>
      <trkpt lat="44.44942" lon="6.69749">
        <ele>2339.15</ele>
        <time>2018-04-19T04:39:58.000Z</time>
      </trkpt>
      <trkpt lat="44.44931" lon="6.69726">
        <ele>2343.41</ele>
        <time>2018-04-19T04:40:26.000Z</time>
      </trkpt>
      <trkpt lat="44.4493" lon="6.69699">
        <ele>2348.51</ele>
        <time>2018-04-19T04:40:54.000Z</time>
      </trkpt>
      <trkpt lat="44.44928" lon="6.69674">
        <ele>2354.93</ele>
        <time>2018-04-19T04:41:42.000Z</time>
      </trkpt>
      <trkpt lat="44.44937" lon="6.6965">
        <ele>2368.2</ele>
        <time>2018-04-19T04:44:02.000Z</time>
      </trkpt>
      <trkpt lat="44.44947" lon="6.69629">
        <ele>2371.51</ele>
        <time>2018-04-19T04:44:26.000Z</time>
      </trkpt>
      <trkpt lat="44.44955" lon="6.69602">
        <ele>2376.44</ele>
        <time>2018-04-19T04:44:54.000Z</time>
      </trkpt>
      <trkpt lat="44.44951" lon="6.69574">
        <ele>2382.32</ele>
        <time>2018-04-19T04:45:26.000Z</time>
      </trkpt>
      <trkpt lat="44.44943" lon="6.69548">
        <ele>2387.95</ele>
        <time>2018-04-19T04:45:54.000Z</time>
      </trkpt>
      <trkpt lat="44.44933" lon="6.69526">
        <ele>2392.95</ele>
        <time>2018-04-19T04:46:22.000Z</time>
      </trkpt>
      <trkpt lat="44.4492" lon="6.69504">
        <ele>2395.67</ele>
        <time>2018-04-19T04:46:50.000Z</time>
      </trkpt>
      <trkpt lat="44.44907" lon="6.69485">
        <ele>2397.06</ele>
        <time>2018-04-19T04:47:18.000Z</time>
      </trkpt>
      <trkpt lat="44.44902" lon="6.69456">
        <ele>2399.98</ele>
        <time>2018-04-19T04:47:50.000Z</time>
      </trkpt>
      <trkpt lat="44.44896" lon="6.69427">
        <ele>2403.82</ele>
        <time>2018-04-19T04:48:14.000Z</time>
      </trkpt>
      <trkpt lat="44.44889" lon="6.69398">
        <ele>2411.12</ele>
        <time>2018-04-19T04:48:46.000Z</time>
      </trkpt>
      <trkpt lat="44.44878" lon="6.69375">
        <ele>2415.91</ele>
        <time>2018-04-19T04:49:14.000Z</time>
      </trkpt>
      <trkpt lat="44.44871" lon="6.69351">
        <ele>2425.98</ele>
        <time>2018-04-19T04:50:49.000Z</time>
      </trkpt>
      <trkpt lat="44.44863" lon="6.69327">
        <ele>2431.79</ele>
        <time>2018-04-19T04:51:17.000Z</time>
      </trkpt>
      <trkpt lat="44.4485" lon="6.69306">
        <ele>2435.6</ele>
        <time>2018-04-19T04:51:45.000Z</time>
      </trkpt>
      <trkpt lat="44.44836" lon="6.69286">
        <ele>2438.8</ele>
        <time>2018-04-19T04:52:17.000Z</time>
      </trkpt>
      <trkpt lat="44.44826" lon="6.69265">
        <ele>2441.55</ele>
        <time>2018-04-19T04:52:41.000Z</time>
      </trkpt>
      <trkpt lat="44.44811" lon="6.69245">
        <ele>2446.63</ele>
        <time>2018-04-19T04:53:09.000Z</time>
      </trkpt>
      <trkpt lat="44.44792" lon="6.6924">
        <ele>2454.63</ele>
        <time>2018-04-19T04:53:45.000Z</time>
      </trkpt>
      <trkpt lat="44.44785" lon="6.69215">
        <ele>2459.91</ele>
        <time>2018-04-19T04:54:41.000Z</time>
      </trkpt>
      <trkpt lat="44.44788" lon="6.6919">
        <ele>2464.45</ele>
        <time>2018-04-19T04:55:09.000Z</time>
      </trkpt>
      <trkpt lat="44.44786" lon="6.69165">
        <ele>2467.72</ele>
        <time>2018-04-19T04:55:33.000Z</time>
      </trkpt>
      <trkpt lat="44.44778" lon="6.69141">
        <ele>2471.1</ele>
        <time>2018-04-19T04:55:57.000Z</time>
      </trkpt>
      <trkpt lat="44.44768" lon="6.69117">
        <ele>2476.13</ele>
        <time>2018-04-19T04:56:25.000Z</time>
      </trkpt>
      <trkpt lat="44.44762" lon="6.69091">
        <ele>2484.85</ele>
        <time>2018-04-19T04:57:25.000Z</time>
      </trkpt>
      <trkpt lat="44.44766" lon="6.69063">
        <ele>2492.96</ele>
        <time>2018-04-19T04:57:57.000Z</time>
      </trkpt>
      <trkpt lat="44.44769" lon="6.69036">
        <ele>2501.63</ele>
        <time>2018-04-19T04:58:33.000Z</time>
      </trkpt>
      <trkpt lat="44.44762" lon="6.69012">
        <ele>2506.71</ele>
        <time>2018-04-19T04:58:57.000Z</time>
      </trkpt>
      <trkpt lat="44.44762" lon="6.68986">
        <ele>2512.09</ele>
        <time>2018-04-19T04:59:21.000Z</time>
      </trkpt>
      <trkpt lat="44.44752" lon="6.68963">
        <ele>2522.85</ele>
        <time>2018-04-19T05:00:29.000Z</time>
      </trkpt>
      <trkpt lat="44.44741" lon="6.68941">
        <ele>2529.12</ele>
        <time>2018-04-19T05:01:01.000Z</time>
      </trkpt>
      <trkpt lat="44.44733" lon="6.68914">
        <ele>2535.44</ele>
        <time>2018-04-19T05:01:37.000Z</time>
      </trkpt>
      <trkpt lat="44.44721" lon="6.68893">
        <ele>2544.57</ele>
        <time>2018-04-19T05:08:58.000Z</time>
      </trkpt>
      <trkpt lat="44.44714" lon="6.68869">
        <ele>2547.08</ele>
        <time>2018-04-19T05:09:34.000Z</time>
      </trkpt>
      <trkpt lat="44.44709" lon="6.68844">
        <ele>2551.12</ele>
        <time>2018-04-19T05:10:06.000Z</time>
      </trkpt>
      <trkpt lat="44.44699" lon="6.68823">
        <ele>2556.39</ele>
        <time>2018-04-19T05:10:38.000Z</time>
      </trkpt>
      <trkpt lat="44.44685" lon="6.68805">
        <ele>2562.92</ele>
        <time>2018-04-19T05:11:14.000Z</time>
      </trkpt>
      <trkpt lat="44.44686" lon="6.68777">
        <ele>2568.81</ele>
        <time>2018-04-19T05:11:46.000Z</time>
      </trkpt>
      <trkpt lat="44.44701" lon="6.68759">
        <ele>2573.63</ele>
        <time>2018-04-19T05:12:14.000Z</time>
      </trkpt>
      <trkpt lat="44.44687" lon="6.68745">
        <ele>2578.67</ele>
        <time>2018-04-19T05:12:50.000Z</time>
      </trkpt>
      <trkpt lat="44.4467" lon="6.68731">
        <ele>2584.05</ele>
        <time>2018-04-19T05:13:18.000Z</time>
      </trkpt>
      <trkpt lat="44.44684" lon="6.68712">
        <ele>2589.9</ele>
        <time>2018-04-19T05:13:50.000Z</time>
      </trkpt>
      <trkpt lat="44.44699" lon="6.68695">
        <ele>2595.77</ele>
        <time>2018-04-19T05:14:22.000Z</time>
      </trkpt>
      <trkpt lat="44.44687" lon="6.68675">
        <ele>2615.25</ele>
        <time>2018-04-19T05:17:58.000Z</time>
      </trkpt>
      <trkpt lat="44.44699" lon="6.68654">
        <ele>2619.53</ele>
        <time>2018-04-19T05:18:38.000Z</time>
      </trkpt>
      <trkpt lat="44.4468" lon="6.68642">
        <ele>2626.07</ele>
        <time>2018-04-19T05:19:30.000Z</time>
      </trkpt>
      <trkpt lat="44.44661" lon="6.68642">
        <ele>2631.11</ele>
        <time>2018-04-19T05:20:02.000Z</time>
      </trkpt>
      <trkpt lat="44.44639" lon="6.68645">
        <ele>2639.37</ele>
        <time>2018-04-19T05:21:02.000Z</time>
      </trkpt>
      <trkpt lat="44.4462" lon="6.68639">
        <ele>2645.77</ele>
        <time>2018-04-19T05:21:30.000Z</time>
      </trkpt>
      <trkpt lat="44.44625" lon="6.68612">
        <ele>2655.29</ele>
        <time>2018-04-19T05:22:14.000Z</time>
      </trkpt>
      <trkpt lat="44.44638" lon="6.68592">
        <ele>2661.74</ele>
        <time>2018-04-19T05:22:46.000Z</time>
      </trkpt>
      <trkpt lat="44.44628" lon="6.6857">
        <ele>2671.19</ele>
        <time>2018-04-19T05:23:50.000Z</time>
      </trkpt>
      <trkpt lat="44.44638" lon="6.68546">
        <ele>2682.32</ele>
        <time>2018-04-19T05:24:54.000Z</time>
      </trkpt>
      <trkpt lat="44.44654" lon="6.68534">
        <ele>2686.87</ele>
        <time>2018-04-19T05:25:25.000Z</time>
      </trkpt>
      <trkpt lat="44.44639" lon="6.68517">
        <ele>2697.4</ele>
        <time>2018-04-19T05:27:13.000Z</time>
      </trkpt>
      <trkpt lat="44.44618" lon="6.68514">
        <ele>2701.26</ele>
        <time>2018-04-19T05:27:41.000Z</time>
      </trkpt>
      <trkpt lat="44.446" lon="6.68519">
        <ele>2704.85</ele>
        <time>2018-04-19T05:28:09.000Z</time>
      </trkpt>
      <trkpt lat="44.44582" lon="6.68529">
        <ele>2708.66</ele>
        <time>2018-04-19T05:28:33.000Z</time>
      </trkpt>
      <trkpt lat="44.4458" lon="6.68504">
        <ele>2714.05</ele>
        <time>2018-04-19T05:29:25.000Z</time>
      </trkpt>
      <trkpt lat="44.44566" lon="6.68486">
        <ele>2726.26</ele>
        <time>2018-04-19T05:30:45.000Z</time>
      </trkpt>
      <trkpt lat="44.44569" lon="6.6846">
        <ele>2730.85</ele>
        <time>2018-04-19T05:31:21.000Z</time>
      </trkpt>
      <trkpt lat="44.44548" lon="6.68456">
        <ele>2740.69</ele>
        <time>2018-04-19T05:32:25.000Z</time>
      </trkpt>
      <trkpt lat="44.44529" lon="6.6845">
        <ele>2745.31</ele>
        <time>2018-04-19T05:32:53.000Z</time>
      </trkpt>
      <trkpt lat="44.44541" lon="6.68429">
        <ele>2750.38</ele>
        <time>2018-04-19T05:33:37.000Z</time>
      </trkpt>
      <trkpt lat="44.44523" lon="6.68422">
        <ele>2764.49</ele>
        <time>2018-04-19T05:36:02.000Z</time>
      </trkpt>
      <trkpt lat="44.44524" lon="6.68395">
        <ele>2770.54</ele>
        <time>2018-04-19T05:36:54.000Z</time>
      </trkpt>
      <trkpt lat="44.44537" lon="6.68377">
        <ele>2777.51</ele>
        <time>2018-04-19T05:38:02.000Z</time>
      </trkpt>
      <trkpt lat="44.44527" lon="6.68355">
        <ele>2784.01</ele>
        <time>2018-04-19T05:38:50.000Z</time>
      </trkpt>
      <trkpt lat="44.44519" lon="6.68329">
        <ele>2793.11</ele>
        <time>2018-04-19T05:40:34.000Z</time>
      </trkpt>
      <trkpt lat="44.44504" lon="6.6831">
        <ele>2804.24</ele>
        <time>2018-04-19T05:42:26.000Z</time>
      </trkpt>
      <trkpt lat="44.44487" lon="6.68299">
        <ele>2820.85</ele>
        <time>2018-04-19T05:44:23.000Z</time>
      </trkpt>
      <trkpt lat="44.44468" lon="6.68298">
        <ele>2835.68</ele>
        <time>2018-04-19T05:52:23.000Z</time>
      </trkpt>
      <trkpt lat="44.44452" lon="6.6831">
        <ele>2841.7</ele>
        <time>2018-04-19T05:53:47.000Z</time>
      </trkpt>
      <trkpt lat="44.44437" lon="6.68297">
        <ele>2847.92</ele>
        <time>2018-04-19T05:55:03.000Z</time>
      </trkpt>
      <trkpt lat="44.44428" lon="6.68274">
        <ele>2865.41</ele>
        <time>2018-04-19T05:58:47.000Z</time>
      </trkpt>
      <trkpt lat="44.44411" lon="6.68266">
        <ele>2885.26</ele>
        <time>2018-04-19T06:11:58.000Z</time>
      </trkpt>
      <trkpt lat="44.44394" lon="6.68255">
        <ele>2890.54</ele>
        <time>2018-04-19T06:13:50.000Z</time>
      </trkpt>
      <trkpt lat="44.44376" lon="6.6825">
        <ele>2896.43</ele>
        <time>2018-04-19T06:15:02.000Z</time>
      </trkpt>
      <trkpt lat="44.44357" lon="6.68244">
        <ele>2900.27</ele>
        <time>2018-04-19T06:15:58.000Z</time>
      </trkpt>
      <trkpt lat="44.44339" lon="6.68241">
        <ele>2911.22</ele>
        <time>2018-04-19T06:19:35.000Z</time>
      </trkpt>
      <trkpt lat="44.44321" lon="6.68235">
        <ele>2916.1</ele>
        <time>2018-04-19T06:21:31.000Z</time>
      </trkpt>
      <trkpt lat="44.44338" lon="6.68243">
        <ele>2925.27</ele>
        <time>2018-04-19T06:44:58.000Z</time>
      </trkpt>
      <trkpt lat="44.4436" lon="6.68253">
        <ele>2925.51</ele>
        <time>2018-04-19T07:21:31.000Z</time>
      </trkpt>
      <trkpt lat="44.44381" lon="6.68259">
        <ele>2923.92</ele>
        <time>2018-04-19T07:21:39.000Z</time>
      </trkpt>
      <trkpt lat="44.444" lon="6.68263">
        <ele>2921.21</ele>
        <time>2018-04-19T07:21:47.000Z</time>
      </trkpt>
      <trkpt lat="44.44423" lon="6.68274">
        <ele>2915.8</ele>
        <time>2018-04-19T07:21:59.000Z</time>
      </trkpt>
      <trkpt lat="44.44448" lon="6.68271">
        <ele>2909.17</ele>
        <time>2018-04-19T07:22:11.000Z</time>
      </trkpt>
      <trkpt lat="44.4447" lon="6.68271">
        <ele>2899.88</ele>
        <time>2018-04-19T07:22:19.000Z</time>
      </trkpt>
      <trkpt lat="44.44493" lon="6.68272">
        <ele>2893.32</ele>
        <time>2018-04-19T07:22:27.000Z</time>
      </trkpt>
      <trkpt lat="44.44506" lon="6.68291">
        <ele>2884.05</ele>
        <time>2018-04-19T07:22:55.000Z</time>
      </trkpt>
      <trkpt lat="44.44516" lon="6.68327">
        <ele>2864.32</ele>
        <time>2018-04-19T07:23:03.000Z</time>
      </trkpt>
      <trkpt lat="44.44536" lon="6.68374">
        <ele>2835.94</ele>
        <time>2018-04-19T07:23:11.000Z</time>
      </trkpt>
      <trkpt lat="44.4455" lon="6.68397">
        <ele>2818.54</ele>
        <time>2018-04-19T07:23:15.000Z</time>
      </trkpt>
      <trkpt lat="44.44542" lon="6.68438">
        <ele>2801.27</ele>
        <time>2018-04-19T07:23:23.000Z</time>
      </trkpt>
      <trkpt lat="44.44552" lon="6.6848">
        <ele>2768.73</ele>
        <time>2018-04-19T07:27:59.000Z</time>
      </trkpt>
      <trkpt lat="44.44566" lon="6.68514">
        <ele>2755.09</ele>
        <time>2018-04-19T07:28:03.000Z</time>
      </trkpt>
      <trkpt lat="44.44576" lon="6.68545">
        <ele>2743.47</ele>
        <time>2018-04-19T07:28:07.000Z</time>
      </trkpt>
      <trkpt lat="44.44584" lon="6.68573">
        <ele>2733.56</ele>
        <time>2018-04-19T07:28:11.000Z</time>
      </trkpt>
      <trkpt lat="44.446" lon="6.68594">
        <ele>2724.98</ele>
        <time>2018-04-19T07:28:15.000Z</time>
      </trkpt>
      <trkpt lat="44.44613" lon="6.68615">
        <ele>2716.66</ele>
        <time>2018-04-19T07:28:19.000Z</time>
      </trkpt>
      <trkpt lat="44.44623" lon="6.68639">
        <ele>2704.97</ele>
        <time>2018-04-19T07:28:23.000Z</time>
      </trkpt>
      <trkpt lat="44.44638" lon="6.68654">
        <ele>2673.77</ele>
        <time>2018-04-19T07:30:32.000Z</time>
      </trkpt>
      <trkpt lat="44.44683" lon="6.68646">
        <ele>2645.09</ele>
        <time>2018-04-19T07:30:40.000Z</time>
      </trkpt>
      <trkpt lat="44.44703" lon="6.68666">
        <ele>2637.04</ele>
        <time>2018-04-19T07:30:44.000Z</time>
      </trkpt>
      <trkpt lat="44.44713" lon="6.68694">
        <ele>2631.98</ele>
        <time>2018-04-19T07:30:48.000Z</time>
      </trkpt>
      <trkpt lat="44.44729" lon="6.68721">
        <ele>2627.99</ele>
        <time>2018-04-19T07:30:52.000Z</time>
      </trkpt>
      <trkpt lat="44.44749" lon="6.68762">
        <ele>2622.99</ele>
        <time>2018-04-19T07:30:56.000Z</time>
      </trkpt>
      <trkpt lat="44.44778" lon="6.68804">
        <ele>2614.62</ele>
        <time>2018-04-19T07:31:00.000Z</time>
      </trkpt>
      <trkpt lat="44.44798" lon="6.68849">
        <ele>2599.15</ele>
        <time>2018-04-19T07:31:08.000Z</time>
      </trkpt>
      <trkpt lat="44.4481" lon="6.68883">
        <ele>2594.07</ele>
        <time>2018-04-19T07:31:12.000Z</time>
      </trkpt>
      <trkpt lat="44.44828" lon="6.68927">
        <ele>2585.4</ele>
        <time>2018-04-19T07:31:16.000Z</time>
      </trkpt>
      <trkpt lat="44.44849" lon="6.68974">
        <ele>2571.84</ele>
        <time>2018-04-19T07:31:20.000Z</time>
      </trkpt>
      <trkpt lat="44.44868" lon="6.69012">
        <ele>2560.05</ele>
        <time>2018-04-19T07:31:24.000Z</time>
      </trkpt>
      <trkpt lat="44.44864" lon="6.69051">
        <ele>2551.99</ele>
        <time>2018-04-19T07:31:28.000Z</time>
      </trkpt>
      <trkpt lat="44.44892" lon="6.69085">
        <ele>2511.71</ele>
        <time>2018-04-19T07:33:48.000Z</time>
      </trkpt>
      <trkpt lat="44.44919" lon="6.69127">
        <ele>2501.87</ele>
        <time>2018-04-19T07:33:52.000Z</time>
      </trkpt>
      <trkpt lat="44.4494" lon="6.69174">
        <ele>2493.35</ele>
        <time>2018-04-19T07:33:56.000Z</time>
      </trkpt>
      <trkpt lat="44.4497" lon="6.69229">
        <ele>2486.5</ele>
        <time>2018-04-19T07:34:00.000Z</time>
      </trkpt>
      <trkpt lat="44.44995" lon="6.69288">
        <ele>2478.55</ele>
        <time>2018-04-19T07:34:04.000Z</time>
      </trkpt>
      <trkpt lat="44.45023" lon="6.69344">
        <ele>2469.51</ele>
        <time>2018-04-19T07:34:08.000Z</time>
      </trkpt>
      <trkpt lat="44.4505" lon="6.69396">
        <ele>2458.2</ele>
        <time>2018-04-19T07:34:12.000Z</time>
      </trkpt>
      <trkpt lat="44.45076" lon="6.69443">
        <ele>2446.57</ele>
        <time>2018-04-19T07:34:16.000Z</time>
      </trkpt>
      <trkpt lat="44.45098" lon="6.69493">
        <ele>2435.52</ele>
        <time>2018-04-19T07:34:20.000Z</time>
      </trkpt>
      <trkpt lat="44.45121" lon="6.69548">
        <ele>2424.62</ele>
        <time>2018-04-19T07:34:24.000Z</time>
      </trkpt>
      <trkpt lat="44.45149" lon="6.69602">
        <ele>2414.28</ele>
        <time>2018-04-19T07:34:28.000Z</time>
      </trkpt>
      <trkpt lat="44.45176" lon="6.6965">
        <ele>2403.2</ele>
        <time>2018-04-19T07:34:32.000Z</time>
      </trkpt>
      <trkpt lat="44.45208" lon="6.69705">
        <ele>2391.44</ele>
        <time>2018-04-19T07:34:36.000Z</time>
      </trkpt>
      <trkpt lat="44.45237" lon="6.69765">
        <ele>2379.88</ele>
        <time>2018-04-19T07:34:40.000Z</time>
      </trkpt>
      <trkpt lat="44.45275" lon="6.69808">
        <ele>2369.42</ele>
        <time>2018-04-19T07:34:44.000Z</time>
      </trkpt>
      <trkpt lat="44.45307" lon="6.69843">
        <ele>2360.36</ele>
        <time>2018-04-19T07:34:48.000Z</time>
      </trkpt>
      <trkpt lat="44.45325" lon="6.6989">
        <ele>2352.61</ele>
        <time>2018-04-19T07:34:52.000Z</time>
      </trkpt>
      <trkpt lat="44.45328" lon="6.69935">
        <ele>2346.48</ele>
        <time>2018-04-19T07:34:56.000Z</time>
      </trkpt>
      <trkpt lat="44.45335" lon="6.69965">
        <ele>2341.69</ele>
        <time>2018-04-19T07:35:00.000Z</time>
      </trkpt>
      <trkpt lat="44.45344" lon="6.69993">
        <ele>2338.49</ele>
        <time>2018-04-19T07:35:04.000Z</time>
      </trkpt>
      <trkpt lat="44.4535" lon="6.7003">
        <ele>2332.11</ele>
        <time>2018-04-19T07:36:28.000Z</time>
      </trkpt>
      <trkpt lat="44.45348" lon="6.70059">
        <ele>2327.69</ele>
        <time>2018-04-19T07:36:32.000Z</time>
      </trkpt>
      <trkpt lat="44.45364" lon="6.70115">
        <ele>2319.18</ele>
        <time>2018-04-19T07:36:40.000Z</time>
      </trkpt>
      <trkpt lat="44.45383" lon="6.70153">
        <ele>2313.15</ele>
        <time>2018-04-19T07:36:44.000Z</time>
      </trkpt>
      <trkpt lat="44.45406" lon="6.70186">
        <ele>2306.69</ele>
        <time>2018-04-19T07:36:48.000Z</time>
      </trkpt>
      <trkpt lat="44.45419" lon="6.70238">
        <ele>2299.73</ele>
        <time>2018-04-19T07:36:52.000Z</time>
      </trkpt>
      <trkpt lat="44.45427" lon="6.70291">
        <ele>2293.63</ele>
        <time>2018-04-19T07:36:56.000Z</time>
      </trkpt>
      <trkpt lat="44.45445" lon="6.7033">
        <ele>2286.23</ele>
        <time>2018-04-19T07:37:00.000Z</time>
      </trkpt>
      <trkpt lat="44.45449" lon="6.70376">
        <ele>2278.79</ele>
        <time>2018-04-19T07:37:04.000Z</time>
      </trkpt>
      <trkpt lat="44.45464" lon="6.70419">
        <ele>2272.45</ele>
        <time>2018-04-19T07:37:08.000Z</time>
      </trkpt>
      <trkpt lat="44.45471" lon="6.70462">
        <ele>2266.89</ele>
        <time>2018-04-19T07:37:12.000Z</time>
      </trkpt>
      <trkpt lat="44.45473" lon="6.70505">
        <ele>2261.77</ele>
        <time>2018-04-19T07:37:16.000Z</time>
      </trkpt>
      <trkpt lat="44.45487" lon="6.70547">
        <ele>2256.71</ele>
        <time>2018-04-19T07:37:20.000Z</time>
      </trkpt>
      <trkpt lat="44.45507" lon="6.70584">
        <ele>2251.51</ele>
        <time>2018-04-19T07:37:24.000Z</time>
      </trkpt>
      <trkpt lat="44.45527" lon="6.70618">
        <ele>2246.28</ele>
        <time>2018-04-19T07:37:28.000Z</time>
      </trkpt>
      <trkpt lat="44.45551" lon="6.70659">
        <ele>2241.04</ele>
        <time>2018-04-19T07:37:32.000Z</time>
      </trkpt>
      <trkpt lat="44.45568" lon="6.70708">
        <ele>2236.17</ele>
        <time>2018-04-19T07:37:36.000Z</time>
      </trkpt>
      <trkpt lat="44.45584" lon="6.70752">
        <ele>2231.38</ele>
        <time>2018-04-19T07:37:40.000Z</time>
      </trkpt>
      <trkpt lat="44.45602" lon="6.70805">
        <ele>2225.8</ele>
        <time>2018-04-19T07:37:44.000Z</time>
      </trkpt>
      <trkpt lat="44.45608" lon="6.70855">
        <ele>2219.51</ele>
        <time>2018-04-19T07:37:48.000Z</time>
      </trkpt>
      <trkpt lat="44.45612" lon="6.7088">
        <ele>2207.54</ele>
        <time>2018-04-19T07:39:08.000Z</time>
      </trkpt>
      <trkpt lat="44.45624" lon="6.70916">
        <ele>2201.55</ele>
        <time>2018-04-19T07:39:12.000Z</time>
      </trkpt>
      <trkpt lat="44.4563" lon="6.70957">
        <ele>2195.75</ele>
        <time>2018-04-19T07:39:16.000Z</time>
      </trkpt>
      <trkpt lat="44.45633" lon="6.70996">
        <ele>2191.5</ele>
        <time>2018-04-19T07:39:20.000Z</time>
      </trkpt>
      <trkpt lat="44.45643" lon="6.71026">
        <ele>2187.7</ele>
        <time>2018-04-19T07:39:24.000Z</time>
      </trkpt>
      <trkpt lat="44.45667" lon="6.71071">
        <ele>2174.85</ele>
        <time>2018-04-19T07:39:32.000Z</time>
      </trkpt>
      <trkpt lat="44.45686" lon="6.71105">
        <ele>2165.07</ele>
        <time>2018-04-19T07:39:36.000Z</time>
      </trkpt>
      <trkpt lat="44.45707" lon="6.71145">
        <ele>2155.16</ele>
        <time>2018-04-19T07:39:40.000Z</time>
      </trkpt>
      <trkpt lat="44.45728" lon="6.71161">
        <ele>2146.06</ele>
        <time>2018-04-19T07:39:44.000Z</time>
      </trkpt>
      <trkpt lat="44.45752" lon="6.71199">
        <ele>2137.03</ele>
        <time>2018-04-19T07:39:48.000Z</time>
      </trkpt>
      <trkpt lat="44.45763" lon="6.71246">
        <ele>2129.09</ele>
        <time>2018-04-19T07:39:52.000Z</time>
      </trkpt>
      <trkpt lat="44.4577" lon="6.71278">
        <ele>2122.98</ele>
        <time>2018-04-19T07:39:56.000Z</time>
      </trkpt>
      <trkpt lat="44.45778" lon="6.71324">
        <ele>2114.14</ele>
        <time>2018-04-19T07:40:04.000Z</time>
      </trkpt>
      <trkpt lat="44.45797" lon="6.71362">
        <ele>2101.65</ele>
        <time>2018-04-19T07:40:56.000Z</time>
      </trkpt>
      <trkpt lat="44.45831" lon="6.7139">
        <ele>2094.93</ele>
        <time>2018-04-19T07:41:00.000Z</time>
      </trkpt>
      <trkpt lat="44.45884" lon="6.71418">
        <ele>2085.93</ele>
        <time>2018-04-19T07:41:04.000Z</time>
      </trkpt>
      <trkpt lat="44.4592" lon="6.71417">
        <ele>2074.15</ele>
        <time>2018-04-19T07:42:20.000Z</time>
      </trkpt>
      <trkpt lat="44.4595" lon="6.71443">
        <ele>2068.84</ele>
        <time>2018-04-19T07:42:24.000Z</time>
      </trkpt>
      <trkpt lat="44.45983" lon="6.71473">
        <ele>2062.32</ele>
        <time>2018-04-19T07:42:28.000Z</time>
      </trkpt>
      <trkpt lat="44.46011" lon="6.71497">
        <ele>2054.75</ele>
        <time>2018-04-19T07:42:32.000Z</time>
      </trkpt>
      <trkpt lat="44.46049" lon="6.71523">
        <ele>2047.21</ele>
        <time>2018-04-19T07:42:36.000Z</time>
      </trkpt>
      <trkpt lat="44.4608" lon="6.71548">
        <ele>2040.29</ele>
        <time>2018-04-19T07:42:40.000Z</time>
      </trkpt>
      <trkpt lat="44.46099" lon="6.71561">
        <ele>2035.83</ele>
        <time>2018-04-19T07:42:44.000Z</time>
      </trkpt>
      <trkpt lat="44.46125" lon="6.71581">
        <ele>2028</ele>
        <time>2018-04-19T07:43:20.000Z</time>
      </trkpt>
      <trkpt lat="44.46139" lon="6.71607">
        <ele>2022.26</ele>
        <time>2018-04-19T07:43:24.000Z</time>
      </trkpt>
      <trkpt lat="44.46163" lon="6.71629">
        <ele>2015.28</ele>
        <time>2018-04-19T07:43:28.000Z</time>
      </trkpt>
      <trkpt lat="44.4619" lon="6.71645">
        <ele>2008.73</ele>
        <time>2018-04-19T07:43:32.000Z</time>
      </trkpt>
      <trkpt lat="44.46236" lon="6.71659">
        <ele>2001.23</ele>
        <time>2018-04-19T07:43:36.000Z</time>
      </trkpt>
      <trkpt lat="44.46284" lon="6.71681">
        <ele>1991.93</ele>
        <time>2018-04-19T07:43:40.000Z</time>
      </trkpt>
      <trkpt lat="44.4632" lon="6.71679">
        <ele>1980.57</ele>
        <time>2018-04-19T07:43:44.000Z</time>
      </trkpt>
      <trkpt lat="44.46339" lon="6.7168">
        <ele>1973.63</ele>
        <time>2018-04-19T07:43:48.000Z</time>
      </trkpt>
      <trkpt lat="44.46361" lon="6.71684">
        <ele>1968.87</ele>
        <time>2018-04-19T07:44:00.000Z</time>
      </trkpt>
      <trkpt lat="44.46382" lon="6.71688">
        <ele>1965.72</ele>
        <time>2018-04-19T07:44:20.000Z</time>
      </trkpt>
      <trkpt lat="44.46397" lon="6.71707">
        <ele>1963.41</ele>
        <time>2018-04-19T07:44:32.000Z</time>
      </trkpt>
      <trkpt lat="44.46421" lon="6.71724">
        <ele>1958.39</ele>
        <time>2018-04-19T07:45:32.000Z</time>
      </trkpt>
      <trkpt lat="44.46436" lon="6.7174">
        <ele>1953.3</ele>
        <time>2018-04-19T07:45:36.000Z</time>
      </trkpt>
      <trkpt lat="44.46449" lon="6.71766">
        <ele>1949.84</ele>
        <time>2018-04-19T07:45:40.000Z</time>
      </trkpt>
      <trkpt lat="44.46464" lon="6.71786">
        <ele>1945.79</ele>
        <time>2018-04-19T07:45:48.000Z</time>
      </trkpt>
      <trkpt lat="44.46485" lon="6.7178">
        <ele>1939.62</ele>
        <time>2018-04-19T07:46:00.000Z</time>
      </trkpt>
      <trkpt lat="44.46524" lon="6.71797">
        <ele>1919.48</ele>
        <time>2018-04-19T07:46:08.000Z</time>
      </trkpt>
      <trkpt lat="44.4655" lon="6.71827">
        <ele>1908.93</ele>
        <time>2018-04-19T07:46:12.000Z</time>
      </trkpt>
      <trkpt lat="44.46531" lon="6.71876">
        <ele>1902.29</ele>
        <time>2018-04-19T07:46:15.000Z</time>
      </trkpt>
      <trkpt lat="44.46535" lon="6.71923">
        <ele>1896.58</ele>
        <time>2018-04-19T07:46:19.000Z</time>
      </trkpt>
      <trkpt lat="44.46548" lon="6.71975">
        <ele>1890.93</ele>
        <time>2018-04-19T07:46:23.000Z</time>
      </trkpt>
      <trkpt lat="44.46561" lon="6.72017">
        <ele>1885.13</ele>
        <time>2018-04-19T07:46:27.000Z</time>
      </trkpt>
      <trkpt lat="44.46585" lon="6.72036">
        <ele>1878.17</ele>
        <time>2018-04-19T07:46:31.000Z</time>
      </trkpt>
      <trkpt lat="44.46615" lon="6.72038">
        <ele>1870.07</ele>
        <time>2018-04-19T07:46:35.000Z</time>
      </trkpt>
      <trkpt lat="44.46645" lon="6.72045">
        <ele>1862.17</ele>
        <time>2018-04-19T07:46:39.000Z</time>
      </trkpt>
      <trkpt lat="44.46661" lon="6.72059">
        <ele>1854.98</ele>
        <time>2018-04-19T07:46:43.000Z</time>
      </trkpt>
      <trkpt lat="44.4667" lon="6.72086">
        <ele>1848.51</ele>
        <time>2018-04-19T07:46:47.000Z</time>
      </trkpt>
      <trkpt lat="44.46684" lon="6.72102">
        <ele>1842.64</ele>
        <time>2018-04-19T07:46:51.000Z</time>
      </trkpt>
      <trkpt lat="44.46669" lon="6.72122">
        <ele>1839.5</ele>
        <time>2018-04-19T07:47:23.000Z</time>
      </trkpt>
      <trkpt lat="44.46687" lon="6.72135">
        <ele>1838.01</ele>
        <time>2018-04-19T07:48:55.000Z</time>
      </trkpt>
    </trkseg>
  </trk>
</gpx>